Time;durP1;ratioP1;P1;durP2;ratioP2;P2;SDS_P1;SDS_P2;PMS_P1;PMS_P2;Temp;Humidity;BMP_temperature;BMP_pressure;BME280_temperature;BME280_humidity;BME280_pressure;Samples;Min_cycle;Max_cycle;Signal;HPM_P1;HPM_P2
2022/03/30 00:01:15;;;;;;;14.02;8.85;;;;;;;12.41;54.13;99343.19;5026934;28;20044;-73
2022/03/30 00:03:40;;;;;;;12.02;7.25;;;;;;;12.40;53.77;99342.38;5014716;28;20040;-73
2022/03/30 00:06:06;;;;;;;11.88;7.30;;;;;;;12.37;54.18;99345.41;5031958;28;20033;-73
2022/03/30 00:08:31;;;;;;;11.55;7.22;;;;;;;12.29;54.22;99345.53;5032270;28;20348;-73
2022/03/30 00:10:57;;;;;;;10.82;6.90;;;;;;;12.22;54.21;99342.84;5031174;28;20063;-73
2022/03/30 00:13:23;;;;;;;9.65;6.13;;;;;;;12.19;54.10;99345.88;5030937;28;20034;-73
2022/03/30 00:15:49;;;;;;;12.30;7.00;;;;;;;12.17;54.43;99333.81;5032034;28;20555;-73
2022/03/30 00:18:14;;;;;;;14.13;7.50;;;;;;;12.14;54.51;99335.03;5031339;28;20040;-73
2022/03/30 00:20:40;;;;;;;11.82;7.15;;;;;;;12.11;54.58;99338.88;5031022;28;20037;-73
2022/03/30 00:23:06;;;;;;;13.00;6.72;;;;;;;12.11;54.46;99336.22;5043622;28;20029;-73
2022/03/30 00:25:31;;;;;;;11.80;6.72;;;;;;;12.08;54.56;99327.84;5051981;28;20041;-73
2022/03/30 00:27:57;;;;;;;10.02;6.47;;;;;;;12.07;54.40;99327.03;5047877;28;20128;-73
2022/03/30 00:30:22;;;;;;;9.25;5.80;;;;;;;12.04;54.31;99322.09;5029974;28;20559;-73
2022/03/30 00:32:48;;;;;;;8.80;4.85;;;;;;;12.04;54.43;99329.25;5031747;28;20045;-73
2022/03/30 00:35:14;;;;;;;8.05;4.70;;;;;;;12.03;54.36;99320.44;5030748;28;20041;-73
2022/03/30 00:37:40;;;;;;;6.57;3.55;;;;;;;12.04;54.29;99322.09;5031851;28;20494;-73
2022/03/30 00:40:08;;;;;;;6.68;3.88;;;;;;;12.02;54.38;99321.47;5029985;28;20040;-73
2022/03/30 00:42:33;;;;;;;10.07;6.13;;;;;;;11.96;55.05;99319.56;5047382;28;20084;-73
2022/03/30 00:45:08;;;;;;;9.85;6.15;;;;;;;11.93;55.16;99314.66;5030526;28;20498;-73
2022/03/30 00:47:33;;;;;;;9.52;5.65;;;;;;;11.89;54.73;99319.53;5034007;28;20055;-73
2022/03/30 00:49:59;;;;;;;7.80;4.95;;;;;;;11.85;54.94;99312.94;5052013;28;20029;-73
2022/03/30 00:52:24;;;;;;;6.70;4.50;;;;;;;11.84;55.02;99321.06;5051367;28;20386;-73
2022/03/30 00:54:50;;;;;;;8.05;5.28;;;;;;;11.79;55.14;99318.16;5050338;28;20071;-73
2022/03/30 00:57:23;;;;;;;7.55;4.30;;;;;;;11.74;55.00;99315.28;5051919;28;20029;-73
2022/03/30 00:59:49;;;;;;;6.10;4.00;;;;;;;11.72;55.27;99314.63;5051193;28;20037;-73
2022/03/30 01:02:14;;;;;;;6.15;4.20;;;;;;;11.71;55.48;99318.31;5045899;28;20048;-73
2022/03/30 01:04:40;;;;;;;8.13;4.53;;;;;;;11.67;55.68;99321.31;5051441;28;20036;-73
2022/03/30 01:07:05;;;;;;;6.57;3.78;;;;;;;11.67;55.44;99315.22;5050404;28;20037;-73
2022/03/30 01:09:31;;;;;;;5.75;3.80;;;;;;;11.66;55.39;99313.56;5051314;28;20075;-73
2022/03/30 01:11:57;;;;;;;5.13;3.40;;;;;;;11.68;55.48;99315.03;5051383;28;20036;-73
2022/03/30 01:14:23;;;;;;;5.28;3.03;;;;;;;11.68;55.36;99304.44;5049587;28;20116;-73
2022/03/30 01:16:49;;;;;;;6.55;4.10;;;;;;;11.69;55.41;99302.59;5050265;28;20116;-73
2022/03/30 01:19:14;;;;;;;9.88;5.03;;;;;;;11.72;55.77;99296.91;5051133;28;20053;-73
2022/03/30 01:21:42;;;;;;;9.52;6.53;;;;;;;11.70;56.44;99296.28;5051198;28;20056;-73
2022/03/30 01:24:09;;;;;;;9.68;6.03;;;;;;;11.71;56.14;99290.00;5011452;28;20125;-73
2022/03/30 01:26:35;;;;;;;8.02;5.38;;;;;;;11.69;55.79;99284.06;5011828;28;20038;-73
2022/03/30 01:32:24;;;;;;;7.22;4.70;;;;;;;11.68;56.07;99285.09;5037012;28;20128;-73
2022/03/30 01:34:32;;;;;;;6.28;3.90;;;;;;;11.62;56.01;99273.41;5050457;28;20100;-73
2022/03/30 01:36:57;;;;;;;7.53;4.70;;;;;;;11.64;56.19;99270.56;5050716;28;20033;-73
2022/03/30 01:39:23;;;;;;;7.30;4.82;;;;;;;11.65;55.98;99270.38;5051085;28;20041;-73
2022/03/30 01:41:48;;;;;;;8.30;5.40;;;;;;;11.60;56.69;99259.53;5051653;28;20035;-73
2022/03/30 01:44:13;;;;;;;7.78;5.00;;;;;;;11.55;56.53;99259.28;5051870;28;20507;-73
2022/03/30 01:46:39;;;;;;;6.40;4.13;;;;;;;11.52;56.70;99258.84;5053449;28;20024;-73
2022/03/30 01:49:04;;;;;;;6.15;4.05;;;;;;;11.48;56.92;99266.34;5037749;28;20447;-73
2022/03/30 01:51:29;;;;;;;10.82;6.55;;;;;;;11.39;58.08;99275.41;5029386;28;20109;-73
2022/03/30 01:53:54;;;;;;;13.90;8.55;;;;;;;11.33;58.84;99268.22;5030507;28;20055;-73
2022/03/30 01:56:21;;;;;;;12.02;7.45;;;;;;;11.34;58.41;99268.03;5030336;28;20030;-73
2022/03/30 01:58:47;;;;;;;11.05;6.80;;;;;;;11.32;58.73;99261.28;5030698;28;20033;-73
2022/03/30 02:01:13;;;;;;;10.60;6.88;;;;;;;11.31;57.98;99257.81;5018863;28;20026;-73
2022/03/30 02:03:39;;;;;;;9.60;6.15;;;;;;;11.29;58.50;99272.25;5011194;28;20040;-73
2022/03/30 02:06:06;;;;;;;8.40;5.75;;;;;;;11.29;57.86;99261.66;5009893;28;20372;-73
2022/03/30 02:08:32;;;;;;;8.32;5.32;;;;;;;11.29;57.53;99245.78;5010320;28;20046;-73
2022/03/30 02:10:58;;;;;;;8.63;4.60;;;;;;;11.28;57.53;99250.28;5010854;28;20037;-73
2022/03/30 02:13:23;;;;;;;8.32;5.88;;;;;;;11.27;57.39;99238.88;5011447;28;20037;-73
2022/03/30 02:15:48;;;;;;;9.27;5.57;;;;;;;11.27;57.42;99252.09;5011436;28;20038;-73
2022/03/30 02:18:14;;;;;;;8.18;5.20;;;;;;;11.27;57.16;99252.09;5011151;28;20065;-73
2022/03/30 02:20:41;;;;;;;8.10;5.18;;;;;;;11.25;57.16;99253.31;5011235;28;20026;-73
2022/03/30 02:23:06;;;;;;;5.95;3.90;;;;;;;11.23;56.95;99256.13;5022683;28;20817;-73
2022/03/30 02:25:32;;;;;;;6.18;3.97;;;;;;;11.15;57.38;99252.75;5012399;28;20160;-73
2022/03/30 02:27:57;;;;;;;8.27;4.93;;;;;;;10.82;58.26;99254.03;5034185;28;20482;-73
2022/03/30 02:30:22;;;;;;;5.90;4.05;;;;;;;10.52;59.15;99255.88;5051354;28;20393;-73
2022/03/30 02:32:48;;;;;;;7.03;4.95;;;;;;;10.24;60.46;99255.63;5051320;28;20069;-73
2022/03/30 02:35:14;;;;;;;6.40;4.40;;;;;;;10.18;60.83;99253.72;5049899;28;20401;-74
2022/03/30 02:37:39;;;;;;;7.25;4.85;;;;;;;10.09;61.78;99249.53;5050981;28;20128;-74
2022/03/30 02:40:05;;;;;;;6.03;4.30;;;;;;;10.07;61.90;99254.16;5050024;28;20120;-74
2022/03/30 02:42:30;;;;;;;8.13;4.38;;;;;;;9.96;62.28;99247.47;5049950;28;20379;-74
2022/03/30 02:44:56;;;;;;;6.25;4.38;;;;;;;9.92;62.28;99240.94;5048450;28;20116;-74
2022/03/30 02:48:17;;;;;;;5.13;3.63;;;;;;;9.90;62.40;99235.81;5048286;28;20489;-74
2022/03/30 02:50:07;;;;;;;7.20;5.00;;;;;;;9.72;63.74;99225.56;5028692;28;20037;-74
2022/03/30 02:52:32;;;;;;;11.13;7.60;;;;;;;9.55;64.87;99221.44;5029406;28;20112;-74
2022/03/30 02:54:57;;;;;;;11.32;6.82;;;;;;;9.54;65.07;99212.72;5029555;28;20064;-74
2022/03/30 02:57:23;;;;;;;8.68;6.00;;;;;;;9.53;65.84;99211.06;5028792;28;20080;-74
2022/03/30 02:59:48;;;;;;;8.38;5.72;;;;;;;9.50;66.63;99203.50;5028116;28;20574;-74
2022/03/30 03:02:13;;;;;;;8.13;5.60;;;;;;;9.47;66.71;99195.13;5028793;28;20045;-74
2022/03/30 03:04:39;;;;;;;7.65;5.38;;;;;;;9.42;66.95;99184.28;5027619;28;20410;-74
2022/03/30 03:07:05;;;;;;;8.88;6.03;;;;;;;9.36;67.59;99177.88;5028785;28;20046;-74
2022/03/30 03:09:30;;;;;;;10.95;6.60;;;;;;;9.34;68.13;99186.00;5029016;28;20026;-74
2022/03/30 03:11:55;;;;;;;12.50;8.02;;;;;;;9.19;69.54;99181.66;5029262;28;20490;-74
2022/03/30 03:14:21;;;;;;;10.30;6.85;;;;;;;9.12;69.01;99176.25;5029011;28;20041;-74
2022/03/30 03:16:46;;;;;;;7.97;5.65;;;;;;;9.11;68.93;99174.63;5029353;28;20371;-74
2022/03/30 03:19:12;;;;;;;7.95;5.28;;;;;;;9.15;68.74;99183.81;5029132;28;20037;-74
2022/03/30 03:21:37;;;;;;;9.23;6.38;;;;;;;9.11;70.27;99183.34;5029667;28;20389;-74
2022/03/30 03:24:03;;;;;;;12.02;7.32;;;;;;;9.05;70.69;99177.94;5029300;28;20057;-74
2022/03/30 03:26:28;;;;;;;12.35;8.18;;;;;;;8.97;70.72;99173.56;5029315;28;20452;-74
2022/03/30 03:28:54;;;;;;;12.60;8.05;;;;;;;8.96;71.41;99171.91;5041123;28;20053;-74
2022/03/30 03:31:19;;;;;;;13.13;7.95;;;;;;;8.91;71.97;99167.19;5049149;28;20517;-74
2022/03/30 03:33:45;;;;;;;12.80;8.15;;;;;;;8.92;71.69;99163.53;5047636;28;20088;-74
2022/03/30 03:36:10;;;;;;;13.82;9.60;;;;;;;8.87;73.14;99165.88;5048382;28;20069;-74
2022/03/30 03:38:35;;;;;;;15.27;9.60;;;;;;;8.87;73.55;99165.06;5052564;28;20099;-74
2022/03/30 03:41:01;;;;;;;14.73;9.68;;;;;;;8.89;74.36;99165.69;5052705;28;20041;-74
2022/03/30 03:43:26;;;;;;;15.98;10.77;;;;;;;8.82;75.53;99157.66;5051582;28;20409;-74
2022/03/30 03:45:51;;;;;;;16.10;10.00;;;;;;;8.81;77.41;99152.56;5052957;28;20037;-74
2022/03/30 03:48:16;;;;;;;18.15;10.30;;;;;;;8.79;76.27;99149.28;5041449;28;20079;-74
2022/03/30 03:50:43;;;;;;;17.15;10.98;;;;;;;8.73;76.45;99156.06;5032781;28;20452;-74
2022/03/30 03:53:08;;;;;;;17.40;10.30;;;;;;;8.67;77.13;99141.75;5030379;28;20039;-74
2022/03/30 03:55:34;;;;;;;16.60;10.70;;;;;;;8.63;77.56;99139.66;5031288;28;20095;-74
2022/03/30 03:58:00;;;;;;;18.02;11.50;;;;;;;8.61;78.01;99141.66;5031301;28;20036;-74
2022/03/30 04:00:25;;;;;;;19.60;11.57;;;;;;;8.60;78.21;99137.34;5032388;28;20034;-74
2022/03/30 04:02:51;;;;;;;21.25;11.65;;;;;;;8.59;79.35;99135.72;5031264;28;20041;-74
2022/03/30 04:05:16;;;;;;;17.92;10.90;;;;;;;8.57;79.37;99135.91;5032559;28;20049;-74
2022/03/30 04:07:41;;;;;;;15.10;9.80;;;;;;;8.62;79.40;99130.09;5033245;28;20037;-74
2022/03/30 04:10:09;;;;;;;17.85;11.30;;;;;;;8.61;80.01;99129.28;5031831;28;20091;-74
2022/03/30 04:12:34;;;;;;;15.43;10.73;;;;;;;8.57;79.52;99124.53;5032352;28;20494;-74
2022/03/30 04:15:00;;;;;;;17.98;11.70;;;;;;;8.58;79.66;99124.38;5032869;28;20117;-74
2022/03/30 04:17:25;;;;;;;16.38;10.50;;;;;;;8.58;79.92;99121.75;5032389;28;20033;-74
2022/03/30 04:19:50;;;;;;;17.98;11.27;;;;;;;8.57;79.96;99122.72;5030880;28;20102;-74
2022/03/30 04:22:17;;;;;;;18.05;11.73;;;;;;;8.59;80.18;99115.47;5034915;28;20029;-74
2022/03/30 04:24:42;;;;;;;20.13;12.80;;;;;;;8.59;80.14;99112.03;5051110;28;20567;-74
2022/03/30 04:27:07;;;;;;;21.08;12.82;;;;;;;8.58;80.90;99115.63;5051676;28;20062;-74
2022/03/30 04:29:33;;;;;;;20.75;12.15;;;;;;;8.58;81.08;99116.47;5051909;28;20102;-74
2022/03/30 04:31:58;;;;;;;18.02;11.93;;;;;;;8.62;80.68;99114.28;5052462;28;20151;-74
2022/03/30 04:34:24;;;;;;;18.20;12.13;;;;;;;8.67;80.72;99111.94;5051475;28;20079;-74
2022/03/30 04:36:49;;;;;;;21.73;11.27;;;;;;;8.78;80.30;99116.84;5052952;28;20025;-74
2022/03/30 04:39:15;;;;;;;21.05;12.60;;;;;;;8.88;79.90;99112.16;5053152;28;20444;-74
2022/03/30 04:41:40;;;;;;;20.70;12.88;;;;;;;8.95;79.58;99109.63;5050838;28;20112;-74
2022/03/30 04:44:06;;;;;;;21.10;13.77;;;;;;;8.99;80.06;99104.84;5049990;28;20121;-74
2022/03/30 04:46:31;;;;;;;22.55;13.45;;;;;;;9.06;80.07;99103.13;5052977;28;20584;-74
2022/03/30 04:48:57;;;;;;;20.40;12.75;;;;;;;9.10;79.57;99107.84;5037653;28;20113;-74
2022/03/30 04:51:22;;;;;;;21.48;13.18;;;;;;;9.14;79.36;99111.78;5034367;28;20117;-74
2022/03/30 04:53:47;;;;;;;18.10;11.02;;;;;;;9.18;79.45;99109.63;5027518;28;20060;-74
2022/03/30 04:56:12;;;;;;;16.15;10.88;;;;;;;9.22;79.09;99110.06;5032298;28;20102;-74
2022/03/30 04:58:38;;;;;;;21.00;13.18;;;;;;;9.19;79.22;99115.72;5033363;28;20116;-74
2022/03/30 05:01:03;;;;;;;19.27;11.85;;;;;;;9.16;79.01;99116.06;5031611;28;20045;-74
2022/03/30 05:03:29;;;;;;;18.40;11.50;;;;;;;9.12;80.20;99111.13;5030361;28;20501;-74
2022/03/30 05:05:54;;;;;;;16.15;9.95;;;;;;;9.08;79.86;99109.88;5031969;28;20045;-74
2022/03/30 05:08:29;;;;;;;17.30;11.48;;;;;;;9.03;80.69;99112.19;5029801;28;20107;-73
2022/03/30 05:10:54;;;;;;;14.65;9.98;;;;;;;9.02;79.96;99118.47;5030723;28;20042;-73
2022/03/30 05:13:19;;;;;;;15.15;9.75;;;;;;;9.08;80.23;99128.34;5031210;28;20601;-73
2022/03/30 05:15:45;;;;;;;14.57;9.88;;;;;;;9.11;80.15;99137.69;5030723;28;20045;-74
2022/03/30 05:18:11;;;;;;;13.88;9.02;;;;;;;9.12;80.06;99149.88;5030327;28;20041;-74
2022/03/30 05:20:36;;;;;;;;;;;;;;;9.12;80.06;99161.25;5031979;28;20079;-74
2022/03/30 05:23:02;;;;;;;14.83;9.47;;;;;;;9.08;80.64;99159.97;5031103;28;20323;-73
2022/03/30 05:25:28;;;;;;;13.07;8.75;;;;;;;9.05;80.76;99159.50;5030101;28;20032;-73
2022/03/30 05:27:54;;;;;;;16.75;10.27;;;;;;;8.96;80.67;99161.34;5030128;28;20410;-73
2022/03/30 05:30:20;;;;;;;11.52;8.80;;;;;;;8.97;80.91;99164.84;5029980;28;20904;-73
2022/03/30 05:32:46;;;;;;;13.68;9.05;;;;;;;8.88;81.14;99162.22;5030994;28;20052;-73
2022/03/30 05:35:12;;;;;;;12.52;8.85;;;;;;;8.85;81.06;99165.22;5030162;28;20061;-73
2022/03/30 05:37:37;;;;;;;16.30;10.05;;;;;;;8.78;81.28;99172.19;5030948;28;20042;-73
2022/03/30 05:40:04;;;;;;;14.75;9.85;;;;;;;8.79;80.57;99173.00;5030446;28;20487;-73
2022/03/30 05:42:30;;;;;;;14.38;8.73;;;;;;;8.75;80.60;99177.81;5029449;28;20367;-73
2022/03/30 05:44:55;;;;;;;14.88;9.52;;;;;;;8.65;80.76;99174.53;5029914;28;20164;-73
2022/03/30 05:47:21;;;;;;;11.25;7.72;;;;;;;8.64;80.28;99179.00;5032093;28;20128;-73
2022/03/30 05:49:46;;;;;;;13.73;7.88;;;;;;;8.67;80.07;99172.56;5049179;28;20032;-73
2022/03/30 05:52:12;;;;;;;12.13;8.10;;;;;;;8.62;80.13;99174.91;5043102;28;20168;-73
2022/03/30 05:54:37;;;;;;;18.65;11.98;;;;;;;8.52;80.50;99176.94;5042470;28;20029;-73
2022/03/30 05:57:05;;;;;;;14.20;9.43;;;;;;;8.48;80.26;99176.44;5030654;28;20052;-73
2022/03/30 05:59:34;;;;;;;17.00;9.88;;;;;;;8.53;79.94;99175.94;5030083;28;20116;-73
2022/03/30 06:02:00;;;;;;;12.63;8.50;;;;;;;8.49;79.91;99168.38;5030245;28;20041;-73
2022/03/30 06:04:26;;;;;;;12.63;8.30;;;;;;;8.51;79.97;99168.22;5030225;28;20045;-73
2022/03/30 06:06:52;;;;;;;10.13;6.60;;;;;;;8.52;79.95;99171.66;5030233;28;20055;-73
2022/03/30 06:09:18;;;;;;;11.65;8.05;;;;;;;8.48;80.06;99174.63;5029835;28;20029;-73
2022/03/30 06:11:44;;;;;;;12.15;7.60;;;;;;;8.45;80.09;99174.16;5030215;28;20057;-73
2022/03/30 06:14:09;;;;;;;18.20;10.77;;;;;;;8.38;80.46;99162.63;5029901;28;20576;-73
2022/03/30 06:16:35;;;;;;;19.95;12.20;;;;;;;8.27;80.82;99161.19;5029972;28;20041;-72
2022/03/30 06:19:01;;;;;;;23.48;15.02;;;;;;;8.18;81.48;99170.94;5029997;28;20374;-72
2022/03/30 06:21:28;;;;;;;22.45;14.05;;;;;;;8.16;81.04;99158.94;5030225;28;20299;-72
2022/03/30 06:23:54;;;;;;;19.25;12.13;;;;;;;8.15;81.07;99160.75;5030500;28;20387;-72
2022/03/30 06:26:20;;;;;;;18.35;11.80;;;;;;;8.13;81.07;99162.72;5029764;28;20037;-72
2022/03/30 06:28:47;;;;;;;27.73;16.35;;;;;;;8.00;82.35;99167.69;5040376;28;20029;-72
2022/03/30 06:31:17;;;;;;;23.15;13.52;;;;;;;8.01;81.94;99157.00;5049761;28;20567;-72
2022/03/30 06:33:43;;;;;;;20.63;12.63;;;;;;;8.06;81.62;99164.41;5049817;28;20056;-72
2022/03/30 06:36:08;;;;;;;18.73;12.25;;;;;;;8.04;81.75;99163.75;5049591;28;20091;-72
2022/03/30 06:38:33;;;;;;;19.80;11.85;;;;;;;8.09;81.73;99174.59;5049362;28;20029;-72
2022/03/30 06:40:59;;;;;;;14.90;10.50;;;;;;;8.12;81.58;99171.59;5049850;28;20033;-72
2022/03/30 06:43:24;;;;;;;17.33;10.50;;;;;;;8.11;81.72;99172.59;5048534;28;20037;-72
2022/03/30 06:45:50;;;;;;;13.60;8.70;;;;;;;8.19;81.13;99169.94;5049486;28;20053;-72
2022/03/30 06:48:15;;;;;;;13.50;8.38;;;;;;;8.24;81.03;99172.06;5040222;28;20403;-72
2022/03/30 06:50:41;;;;;;;17.25;10.98;;;;;;;8.22;81.44;99172.25;5030349;28;20033;-72
2022/03/30 06:53:07;;;;;;;21.58;11.68;;;;;;;8.22;81.64;99163.50;5028504;28;20345;-72
2022/03/30 06:55:33;;;;;;;18.02;10.77;;;;;;;8.22;81.60;99168.78;5028438;28;20029;-75
2022/03/30 06:57:58;;;;;;;19.10;10.85;;;;;;;8.19;81.74;99169.94;5029698;28;20037;-74
2022/03/30 07:00:23;;;;;;;26.13;17.20;;;;;;;8.13;82.16;99169.78;5029639;28;20033;-74
2022/03/30 07:02:49;;;;;;;26.15;16.67;;;;;;;8.07;82.41;99168.66;5029242;28;20125;-74
2022/03/30 07:05:14;;;;;;;22.83;14.98;;;;;;;8.05;82.47;99165.38;5030467;28;20135;-74
2022/03/30 07:10:24;;;;;;;22.00;13.25;;;;;;;8.12;82.08;99168.16;5030706;28;20037;-74
2022/03/30 07:12:51;;;;;;;16.73;11.02;;;;;;;8.18;81.82;99163.03;5030857;28;20034;-74
2022/03/30 07:15:18;;;;;;;16.38;10.85;;;;;;;8.23;81.81;99168.63;5032106;28;20045;-74
2022/03/30 07:17:49;;;;;;;28.25;17.55;;;;;;;8.23;81.92;99173.06;5031995;28;20030;-74
2022/03/30 07:20:15;;;;;;;27.88;18.60;;;;;;;8.11;82.87;99164.72;5032980;28;20036;-74
2022/03/30 07:22:42;;;;;;;26.67;16.48;;;;;;;8.15;82.85;99167.81;5033386;28;20048;-74
2022/03/30 07:25:09;;;;;;;26.27;16.77;;;;;;;8.15;83.06;99167.81;5033425;28;20038;-73
2022/03/30 07:27:37;;;;;;;22.40;14.40;;;;;;;8.15;82.61;99165.19;5033873;28;20155;-74
2022/03/30 07:30:03;;;;;;;24.92;15.93;;;;;;;8.13;83.30;99161.88;5051501;28;20037;-74
2022/03/30 07:32:29;;;;;;;23.80;14.23;;;;;;;8.15;83.11;99160.75;5052758;28;20401;-74
2022/03/30 07:34:54;;;;;;;29.05;16.55;;;;;;;8.15;83.20;99163.38;5053099;28;20029;-74
2022/03/30 07:37:20;;;;;;;34.65;20.83;;;;;;;8.07;85.18;99152.88;5052813;28;20025;-74
2022/03/30 07:39:45;;;;;;;31.42;19.80;;;;;;;8.09;85.16;99150.88;5052916;28;20364;-73
2022/03/30 07:42:10;;;;;;;31.58;20.75;;;;;;;8.05;86.15;99146.94;5051316;28;20112;-74
2022/03/30 07:44:36;;;;;;;32.75;20.30;;;;;;;8.04;86.04;99150.59;5053067;28;20131;-74
2022/03/30 07:47:03;;;;;;;31.63;18.42;;;;;;;8.15;85.76;99137.06;5051543;28;20429;-74
2022/03/30 07:49:28;;;;;;;26.50;16.48;;;;;;;8.23;85.26;99134.38;5033719;28;20401;-74
2022/03/30 07:51:53;;;;;;;23.48;15.25;;;;;;;8.34;84.91;99137.63;5031033;28;20025;-74
2022/03/30 07:54:19;;;;;;;23.48;14.27;;;;;;;8.37;84.58;99132.84;5027812;28;20030;-74
2022/03/30 07:56:57;;;;;;;24.60;14.35;;;;;;;8.42;84.38;99121.81;5032617;28;20057;-74
2022/03/30 07:59:22;;;;;;;23.23;14.60;;;;;;;8.45;85.15;99126.75;5031034;28;20457;-73
2022/03/30 08:01:48;;;;;;;33.45;20.98;;;;;;;8.43;85.70;99129.53;5032520;28;20038;-74
2022/03/30 08:04:39;;;;;;;32.38;19.92;;;;;;;8.39;85.68;99127.38;5032264;28;20044;-73
2022/03/30 08:07:04;;;;;;;33.05;18.95;;;;;;;8.39;86.93;99122.97;5032493;28;20044;-74
2022/03/30 08:09:29;;;;;;;31.58;20.05;;;;;;;8.29;88.50;99128.44;5030972;28;20469;-74
2022/03/30 08:11:55;;;;;;;29.02;18.05;;;;;;;8.28;88.11;99125.97;5030887;28;20112;-73
2022/03/30 08:14:20;;;;;;;29.73;18.05;;;;;;;8.36;87.26;99133.81;5031734;28;20448;-73
2022/03/30 08:16:46;;;;;;;27.55;16.38;;;;;;;8.40;87.18;99134.34;5032469;28;20033;-73
2022/03/30 08:19:11;;;;;;;24.77;15.63;;;;;;;8.46;86.48;99138.91;5031916;28;20034;-73
2022/03/30 08:24:22;;;;;;;26.13;16.90;;;;;;;8.42;86.21;99148.16;5012178;28;20045;-73
2022/03/30 08:26:47;;;;;;;26.35;16.08;;;;;;;8.41;86.38;99149.13;5012438;28;20430;-73
2022/03/30 08:29:13;;;;;;;29.90;18.30;;;;;;;8.36;86.15;99146.19;5040390;28;20029;-73
2022/03/30 08:31:38;;;;;;;36.92;21.77;;;;;;;8.29;87.15;99148.66;5050533;28;20040;-73
2022/03/30 08:34:03;;;;;;;36.97;22.77;;;;;;;8.24;88.15;99145.72;5051641;28;20033;-73
2022/03/30 08:36:29;;;;;;;44.15;25.63;;;;;;;8.18;88.31;99146.44;5051569;28;20040;-74
2022/03/30 08:38:59;;;;;;;36.92;22.63;;;;;;;8.22;87.66;99147.72;5051683;28;20033;-73
2022/03/30 08:41:25;;;;;;;35.33;21.50;;;;;;;8.23;88.48;99152.81;5051771;28;20064;-73
2022/03/30 08:43:51;;;;;;;29.63;18.90;;;;;;;8.34;87.81;99148.97;5051798;28;20025;-74
2022/03/30 08:46:17;;;;;;;36.10;21.60;;;;;;;8.37;87.89;99150.47;5050919;28;20130;-74
2022/03/30 08:48:42;;;;;;;39.92;22.70;;;;;;;8.36;88.33;99147.00;5037582;28;20034;-74
2022/03/30 08:51:08;;;;;;;39.25;23.85;;;;;;;8.35;88.69;99148.00;5031827;28;20033;-74
2022/03/30 08:53:34;;;;;;;41.42;24.52;;;;;;;8.27;89.19;99151.50;5031750;28;20033;-73
2022/03/30 08:55:59;;;;;;;45.67;26.92;;;;;;;8.19;89.93;99151.50;5028645;28;20030;-74
2022/03/30 08:58:25;;;;;;;40.90;26.08;;;;;;;8.16;90.29;99154.47;5030784;28;20042;-74
2022/03/30 09:01:09;;;;;;;41.88;23.95;;;;;;;8.16;89.91;99153.66;5030436;28;20577;-75
2022/03/30 09:03:35;;;;;;;41.13;25.10;;;;;;;8.06;89.92;99153.88;5031808;28;20033;-74
2022/03/30 09:06:00;;;;;;;42.58;25.40;;;;;;;8.04;90.55;99151.41;5031590;28;20033;-74
2022/03/30 09:08:27;;;;;;;38.60;23.88;;;;;;;8.07;90.23;99148.41;5030805;28;20032;-74
2022/03/30 09:10:55;;;;;;;38.67;24.27;;;;;;;8.07;90.90;99152.88;5031351;28;20030;-74
2022/03/30 09:13:21;;;;;;;39.35;23.33;;;;;;;8.08;89.72;99157.16;5029713;28;20037;-74
2022/03/30 09:15:48;;;;;;;42.03;24.75;;;;;;;8.06;89.97;99151.22;5031465;28;20057;-73
2022/03/30 09:18:15;;;;;;;40.33;25.85;;;;;;;8.02;89.85;99149.91;5030824;28;20567;-74
2022/03/30 09:20:46;;;;;;;42.85;24.15;;;;;;;8.01;89.75;99143.03;5031128;28;20041;-73
2022/03/30 09:23:13;;;;;;;40.63;24.98;;;;;;;7.98;89.97;99136.25;5031391;28;20033;-73
2022/03/30 09:25:44;;;;;;;37.83;22.77;;;;;;;8.04;90.37;99148.75;5031154;28;20123;-73
2022/03/30 09:28:10;;;;;;;41.83;25.52;;;;;;;8.08;90.78;99139.53;5035665;28;20126;-73
2022/03/30 09:30:36;;;;;;;43.53;25.58;;;;;;;8.15;90.43;99137.06;5049231;28;20530;-73
2022/03/30 09:33:01;;;;;;;34.78;22.15;;;;;;;8.23;89.91;99137.00;5050771;28;20147;-73
2022/03/30 09:35:33;;;;;;;38.95;22.38;;;;;;;8.30;89.54;99137.16;5050395;28;20033;-74
2022/03/30 09:38:08;;;;;;;34.17;20.83;;;;;;;8.34;89.38;99137.63;5050918;28;20025;-73
2022/03/30 09:40:35;;;;;;;34.83;22.58;;;;;;;8.28;89.71;99137.31;5050241;28;20397;-74
2022/03/30 09:43:16;;;;;;;35.63;20.88;;;;;;;8.35;89.43;99147.19;5050990;28;20179;-74
2022/03/30 09:45:42;;;;;;;32.70;19.52;;;;;;;8.39;89.72;99132.66;5049577;28;20107;-74
2022/03/30 09:48:35;;;;;;;35.80;21.15;;;;;;;8.44;89.35;99130.38;5043323;28;20497;-74
2022/03/30 09:51:02;;;;;;;40.65;23.83;;;;;;;8.37;89.84;99129.41;5026384;28;20128;-74
2022/03/30 09:53:30;;;;;;;29.05;18.92;;;;;;;8.45;89.52;99135.47;5030633;28;20029;-74
2022/03/30 09:55:57;;;;;;;34.42;20.85;;;;;;;8.50;89.82;99129.66;5032428;28;20529;-74
2022/03/30 09:58:25;;;;;;;36.03;22.67;;;;;;;8.45;90.34;99126.75;5037730;28;20037;-74
2022/03/30 10:01:11;;;;;;;33.47;21.52;;;;;;;8.50;90.25;99134.94;5031098;28;20041;-74
2022/03/30 10:03:54;;;;;;;42.15;24.02;;;;;;;8.46;90.17;99123.09;5031746;28;20044;-74
2022/03/30 10:06:26;;;;;;;36.75;22.45;;;;;;;8.52;90.31;99126.88;5032257;28;20033;-74
2022/03/30 10:08:53;;;;;;;34.90;20.88;;;;;;;8.69;89.76;99123.97;5032050;28;20103;-74
2022/03/30 10:11:21;;;;;;;37.78;22.35;;;;;;;8.69;89.97;99120.50;5031470;28;20029;-74
2022/03/30 10:13:51;;;;;;;38.95;23.17;;;;;;;8.66;90.37;99118.22;5032980;28;20045;-74
2022/03/30 10:16:18;;;;;;;38.90;23.42;;;;;;;8.66;90.05;99113.78;5045676;28;20060;-74
2022/03/30 10:18:44;;;;;;;33.60;21.88;;;;;;;8.63;89.73;99116.78;5050614;28;20040;-74
2022/03/30 10:21:17;;;;;;;29.05;18.80;;;;;;;8.73;89.72;99118.38;5050299;28;20049;-74
2022/03/30 10:24:00;;;;;;;28.38;17.92;;;;;;;8.78;89.49;99110.75;5031872;28;20041;-74
2022/03/30 10:26:32;;;;;;;29.30;18.35;;;;;;;8.76;89.33;99110.09;5029698;28;20047;-74
2022/03/30 10:29:04;;;;;;;27.98;17.23;;;;;;;8.81;89.06;99108.56;5028691;28;20033;-74
2022/03/30 10:31:30;;;;;;;24.38;15.68;;;;;;;8.90;89.10;99104.06;5028742;28;20029;-74
2022/03/30 10:33:55;;;;;;;22.88;14.38;;;;;;;9.02;88.47;99105.28;5041863;28;20029;-74
2022/03/30 10:36:32;;;;;;;29.80;18.27;;;;;;;8.94;88.81;99105.38;5048303;28;20079;-74
2022/03/30 10:39:07;;;;;;;27.95;18.13;;;;;;;8.97;88.75;99102.38;5048947;28;20459;-74
2022/03/30 10:42:03;;;;;;;32.47;19.92;;;;;;;8.94;89.10;99105.38;5050229;28;20512;-74
2022/03/30 10:44:43;;;;;;;24.38;16.30;;;;;;;9.02;88.46;99105.28;5049570;28;20037;-74
2022/03/30 10:47:11;;;;;;;28.08;17.92;;;;;;;8.98;88.39;99105.81;5047593;28;20036;-74
2022/03/30 10:49:51;;;;;;;25.10;16.40;;;;;;;8.99;88.61;99100.38;5009878;28;20047;-74
2022/03/30 10:52:42;;;;;;;25.23;16.58;;;;;;;9.06;88.10;99098.69;5009682;28;20554;-74
2022/03/30 10:55:13;;;;;;;;;;;;;;;9.01;89.29;99101.03;5010578;28;20037;-74
2022/03/30 10:57:57;;;;;;;31.65;19.95;;;;;;;9.00;89.03;99101.19;5010240;28;19936;-74
2022/03/30 11:00:28;;;;;;;26.50;16.13;;;;;;;9.09;88.50;99098.31;5008516;28;20110;-74
2022/03/30 11:03:20;;;;;;;23.33;14.57;;;;;;;9.24;88.56;99094.91;5010476;28;20053;-74
2022/03/30 11:06:02;;;;;;;20.52;13.35;;;;;;;9.52;88.27;99092.50;5010319;28;20057;-74
2022/03/30 11:08:34;;;;;;;20.52;13.48;;;;;;;9.70;88.00;99087.69;5009413;28;20087;-74
2022/03/30 11:11:24;;;;;;;25.50;16.15;;;;;;;9.63;87.37;99081.50;5009810;28;20064;-74
2022/03/30 11:14:09;;;;;;;21.55;14.18;;;;;;;9.62;87.40;99087.78;5024044;28;20065;-74
2022/03/30 11:16:52;;;;;;;26.90;17.48;;;;;;;9.47;87.90;99079.84;5028914;28;20563;-74
2022/03/30 11:19:18;;;;;;;26.58;16.75;;;;;;;9.41;87.69;99072.63;5029471;28;20060;-73
2022/03/30 11:22:08;;;;;;;33.22;20.85;;;;;;;9.25;88.10;99080.72;5029450;28;20033;-74
2022/03/30 11:24:35;;;;;;;32.03;20.02;;;;;;;9.19;88.38;99070.88;5009346;28;20037;-73
2022/03/30 11:27:00;;;;;;;30.65;20.20;;;;;;;9.31;88.29;99072.09;5009501;28;20030;-74
2022/03/30 11:29:48;;;;;;;28.00;18.00;;;;;;;9.66;87.73;99067.94;5039754;28;20056;-74
2022/03/30 11:32:26;;;;;;;29.48;19.00;;;;;;;9.92;87.26;99067.47;5036440;28;20310;-74
2022/03/30 11:34:54;;;;;;;28.67;18.58;;;;;;;10.01;86.60;99065.56;5029225;28;20034;-74
2022/03/30 11:37:26;;;;;;;33.88;20.92;;;;;;;9.84;86.63;99058.81;5029111;28;20068;-74
2022/03/30 11:40:00;;;;;;;31.38;19.88;;;;;;;9.65;87.03;99060.19;5028928;28;20033;-74